sensor_id;sensor_type;location;lat;lon;timestamp;pressure;altitude;pressure_sealevel;temperature;humidity
48041;BME280;33815;48.386;11.738;2022-10-16T00:00:27;96566.63;;;9.89;100.00
48041;BME280;33815;48.386;11.738;2022-10-16T00:02:52;96547.22;;;9.73;100.00
48041;BME280;33815;48.386;11.738;2022-10-16T00:05:17;96556.03;;;9.72;100.00
48041;BME280;33815;48.386;11.738;2022-10-16T00:07:42;96547.44;;;9.62;100.00
48041;BME280;33815;48.386;11.738;2022-10-16T00:10:08;96571.94;;;9.69;100.00
48041;BME280;33815;48.386;11.738;2022-10-16T00:12:33;96561.03;;;9.56;100.00
48041;BME280;33815;48.386;11.738;2022-10-16T00:14:58;96569.78;;;9.55;100.00
48041;BME280;33815;48.386;11.738;2022-10-16T00:17:24;96581.69;;;9.57;100.00
48041;BME280;33815;48.386;11.738;2022-10-16T00:19:49;96540.75;;;9.32;100.00
48041;BME280;33815;48.386;11.738;2022-10-16T00:22:14;96574.19;;;9.54;100.00
48041;BME280;33815;48.386;11.738;2022-10-16T00:24:39;96572.13;;;9.48;100.00
48041;BME280;33815;48.386;11.738;2022-10-16T00:27:05;96568.78;;;9.38;100.00
48041;BME280;33815;48.386;11.738;2022-10-16T00:29:30;96555.13;;;9.26;100.00
48041;BME280;33815;48.386;11.738;2022-10-16T00:31:55;96570.31;;;9.31;100.00
48041;BME280;33815;48.386;11.738;2022-10-16T00:34:20;96571.09;;;9.41;100.00
48041;BME280;33815;48.386;11.738;2022-10-16T00:36:46;96561.50;;;9.41;100.00
48041;BME280;33815;48.386;11.738;2022-10-16T00:39:11;96561.66;;;9.40;100.00
48041;BME280;33815;48.386;11.738;2022-10-16T00:41:37;96546.25;;;9.29;100.00
48041;BME280;33815;48.386;11.738;2022-10-16T00:44:40;96551.19;;;9.22;100.00
48041;BME280;33815;48.386;11.738;2022-10-16T00:46:49;96546.34;;;9.27;100.00
48041;BME280;33815;48.386;11.738;2022-10-16T00:49:17;96563.72;;;9.36;100.00
48041;BME280;33815;48.386;11.738;2022-10-16T00:51:47;96562.22;;;9.34;100.00
48041;BME280;33815;48.386;11.738;2022-10-16T00:54:15;96558.81;;;9.33;100.00
48041;BME280;33815;48.386;11.738;2022-10-16T00:56:42;96548.16;;;9.26;100.00
48041;BME280;33815;48.386;11.738;2022-10-16T00:59:16;96561.69;;;9.30;100.00
48041;BME280;33815;48.386;11.738;2022-10-16T01:01:42;96550.16;;;9.33;100.00
48041;BME280;33815;48.386;11.738;2022-10-16T01:04:08;96579.13;;;9.48;100.00
48041;BME280;33815;48.386;11.738;2022-10-16T01:06:45;96577.88;;;9.52;100.00
48041;BME280;33815;48.386;11.738;2022-10-16T01:09:23;96577.34;;;9.48;100.00
48041;BME280;33815;48.386;11.738;2022-10-16T01:12:01;96581.88;;;9.46;100.00
48041;BME280;33815;48.386;11.738;2022-10-16T01:17:04;96581.34;;;9.42;100.00
48041;BME280;33815;48.386;11.738;2022-10-16T01:22:19;96568.78;;;9.38;100.00
48041;BME280;33815;48.386;11.738;2022-10-16T01:24:48;96581.06;;;9.46;100.00
48041;BME280;33815;48.386;11.738;2022-10-16T01:27:21;96557.56;;;9.37;100.00
48041;BME280;33815;48.386;11.738;2022-10-16T01:35:14;96587.63;;;9.50;100.00
48041;BME280;33815;48.386;11.738;2022-10-16T01:37:50;96586.78;;;9.49;100.00
48041;BME280;33815;48.386;11.738;2022-10-16T01:40:19;96574.66;;;9.40;100.00
48041;BME280;33815;48.386;11.738;2022-10-16T01:42:53;96583.94;;;9.42;100.00
48041;BME280;33815;48.386;11.738;2022-10-16T01:45:21;96571.25;;;9.30;100.00
48041;BME280;33815;48.386;11.738;2022-10-16T01:47:48;96584.38;;;9.38;100.00
48041;BME280;33815;48.386;11.738;2022-10-16T01:50:16;96578.22;;;9.39;100.00
48041;BME280;33815;48.386;11.738;2022-10-16T01:52:45;96585.06;;;9.40;100.00
48041;BME280;33815;48.386;11.738;2022-10-16T01:55:17;96559.75;;;9.32;100.00
48041;BME280;33815;48.386;11.738;2022-10-16T01:57:47;96580.25;;;9.45;100.00
48041;BME280;33815;48.386;11.738;2022-10-16T02:00:15;96591.03;;;9.50;100.00
48041;BME280;33815;48.386;11.738;2022-10-16T02:02:45;96581.31;;;9.52;100.00
48041;BME280;33815;48.386;11.738;2022-10-16T02:05:23;96586.75;;;9.59;100.00
48041;BME280;33815;48.386;11.738;2022-10-16T02:07:51;96564.06;;;9.51;100.00
48041;BME280;33815;48.386;11.738;2022-10-16T02:10:17;96574.34;;;9.53;100.00
48041;BME280;33815;48.386;11.738;2022-10-16T02:12:48;96556.53;;;9.48;100.00
48041;BME280;33815;48.386;11.738;2022-10-16T02:15:15;96545.56;;;9.54;100.00
48041;BME280;33815;48.386;11.738;2022-10-16T02:17:40;96571.59;;;9.54;100.00
48041;BME280;33815;48.386;11.738;2022-10-16T02:20:05;96583.81;;;9.44;100.00
48041;BME280;33815;48.386;11.738;2022-10-16T02:22:38;96592.94;;;9.48;100.00
48041;BME280;33815;48.386;11.738;2022-10-16T02:25:30;96600.25;;;9.45;100.00
48041;BME280;33815;48.386;11.738;2022-10-16T02:28:17;96592.91;;;9.30;100.00
48041;BME280;33815;48.386;11.738;2022-10-16T02:30:48;96603.97;;;9.32;100.00
48041;BME280;33815;48.386;11.738;2022-10-16T02:33:16;96581.56;;;9.12;100.00
48041;BME280;33815;48.386;11.738;2022-10-16T02:35:44;96584.56;;;9.26;100.00
48041;BME280;33815;48.386;11.738;2022-10-16T02:38:10;96593.16;;;9.27;100.00
48041;BME280;33815;48.386;11.738;2022-10-16T02:40:36;96571.19;;;9.02;100.00
48041;BME280;33815;48.386;11.738;2022-10-16T02:43:03;96596.50;;;9.09;100.00
48041;BME280;33815;48.386;11.738;2022-10-16T02:45:29;96595.56;;;9.01;100.00
48041;BME280;33815;48.386;11.738;2022-10-16T02:47:54;96594.09;;;8.88;100.00
48041;BME280;33815;48.386;11.738;2022-10-16T02:50:20;96608.16;;;8.96;100.00
48041;BME280;33815;48.386;11.738;2022-10-16T02:52:45;96567.56;;;8.75;100.00
48041;BME280;33815;48.386;11.738;2022-10-16T02:55:11;96600.38;;;8.96;100.00
48041;BME280;33815;48.386;11.738;2022-10-16T02:57:36;96581.25;;;8.87;100.00
48041;BME280;33815;48.386;11.738;2022-10-16T03:00:04;96572.34;;;8.89;100.00
48041;BME280;33815;48.386;11.738;2022-10-16T03:02:30;96569.97;;;8.96;100.00
48041;BME280;33815;48.386;11.738;2022-10-16T03:04:55;96559.63;;;8.77;100.00
48041;BME280;33815;48.386;11.738;2022-10-16T03:07:20;96578.66;;;8.77;100.00
48041;BME280;33815;48.386;11.738;2022-10-16T03:09:45;96585.75;;;8.75;100.00
48041;BME280;33815;48.386;11.738;2022-10-16T03:12:11;96599.00;;;8.82;100.00
48041;BME280;33815;48.386;11.738;2022-10-16T03:14:37;96579.63;;;8.66;100.00
48041;BME280;33815;48.386;11.738;2022-10-16T03:17:02;96575.94;;;8.59;100.00
48041;BME280;33815;48.386;11.738;2022-10-16T03:19:27;96592.47;;;8.58;100.00
48041;BME280;33815;48.386;11.738;2022-10-16T03:21:53;96606.81;;;8.62;100.00
48041;BME280;33815;48.386;11.738;2022-10-16T03:24:18;96604.38;;;8.61;100.00
48041;BME280;33815;48.386;11.738;2022-10-16T03:26:43;96594.78;;;8.51;100.00
48041;BME280;33815;48.386;11.738;2022-10-16T03:29:08;96611.59;;;8.67;100.00
48041;BME280;33815;48.386;11.738;2022-10-16T03:31:34;96594.13;;;8.49;100.00
48041;BME280;33815;48.386;11.738;2022-10-16T03:33:59;96610.78;;;8.56;100.00
48041;BME280;33815;48.386;11.738;2022-10-16T03:36:24;96606.69;;;8.54;100.00
48041;BME280;33815;48.386;11.738;2022-10-16T03:38:50;96595.47;;;8.53;100.00
48041;BME280;33815;48.386;11.738;2022-10-16T03:41:15;96612.28;;;8.69;100.00
48041;BME280;33815;48.386;11.738;2022-10-16T03:43:40;96593.03;;;8.62;100.00
48041;BME280;33815;48.386;11.738;2022-10-16T03:46:06;96609.97;;;8.76;100.00
48041;BME280;33815;48.386;11.738;2022-10-16T03:48:31;96609.69;;;8.79;100.00
48041;BME280;33815;48.386;11.738;2022-10-16T03:50:57;96592.06;;;8.72;100.00
48041;BME280;33815;48.386;11.738;2022-10-16T03:53:23;96608.19;;;8.86;100.00
48041;BME280;33815;48.386;11.738;2022-10-16T03:55:48;96614.16;;;8.96;100.00
48041;BME280;33815;48.386;11.738;2022-10-16T03:58:14;96605.56;;;8.86;100.00
48041;BME280;33815;48.386;11.738;2022-10-16T04:00:43;96604.63;;;8.87;100.00
48041;BME280;33815;48.386;11.738;2022-10-16T04:03:09;96618.69;;;9.04;100.00
48041;BME280;33815;48.386;11.738;2022-10-16T04:05:34;96610.09;;;9.03;100.00
48041;BME280;33815;48.386;11.738;2022-10-16T04:07:59;96615.25;;;9.13;100.00
48041;BME280;33815;48.386;11.738;2022-10-16T04:10:25;96624.69;;;9.14;100.00
48041;BME280;33815;48.386;11.738;2022-10-16T04:12:50;96631.09;;;9.20;100.00
48041;BME280;33815;48.386;11.738;2022-10-16T04:15:15;96616.88;;;9.14;100.00
48041;BME280;33815;48.386;11.738;2022-10-16T04:17:40;96620.44;;;9.23;100.00
48041;BME280;33815;48.386;11.738;2022-10-16T04:20:06;96611.28;;;9.19;100.00
48041;BME280;33815;48.386;11.738;2022-10-16T04:22:31;96615.75;;;9.26;100.00
48041;BME280;33815;48.386;11.738;2022-10-16T04:24:57;96606.88;;;9.29;100.00
48041;BME280;33815;48.386;11.738;2022-10-16T04:27:22;96611.25;;;9.29;100.00
48041;BME280;33815;48.386;11.738;2022-10-16T04:29:47;96631.75;;;9.41;100.00
48041;BME280;33815;48.386;11.738;2022-10-16T04:32:12;96617.41;;;9.28;100.00
48041;BME280;33815;48.386;11.738;2022-10-16T04:34:39;96625.97;;;9.48;100.00
48041;BME280;33815;48.386;11.738;2022-10-16T04:37:04;96616.50;;;9.47;100.00
48041;BME280;33815;48.386;11.738;2022-10-16T04:39:30;96609.94;;;9.42;100.00
48041;BME280;33815;48.386;11.738;2022-10-16T04:41:55;96619.88;;;9.67;100.00
48041;BME280;33815;48.386;11.738;2022-10-16T04:44:20;96610.88;;;9.61;100.00
48041;BME280;33815;48.386;11.738;2022-10-16T04:46:45;96607.28;;;9.62;100.00
48041;BME280;33815;48.386;11.738;2022-10-16T04:49:11;96606.44;;;9.71;100.00
48041;BME280;33815;48.386;11.738;2022-10-16T04:51:36;96612.69;;;9.78;100.00
48041;BME280;33815;48.386;11.738;2022-10-16T04:54:01;96610.69;;;9.72;100.00
48041;BME280;33815;48.386;11.738;2022-10-16T04:56:27;96581.19;;;9.54;100.00
48041;BME280;33815;48.386;11.738;2022-10-16T04:58:52;96624.91;;;9.78;100.00
48041;BME280;33815;48.386;11.738;2022-10-16T05:01:17;96622.72;;;9.73;100.00
48041;BME280;33815;48.386;11.738;2022-10-16T05:03:42;96621.09;;;9.72;100.00
48041;BME280;33815;48.386;11.738;2022-10-16T05:06:08;96610.72;;;9.63;100.00
48041;BME280;33815;48.386;11.738;2022-10-16T05:08:33;96605.56;;;9.53;100.00
48041;BME280;33815;48.386;11.738;2022-10-16T05:10:58;96632.56;;;9.80;100.00
48041;BME280;33815;48.386;11.738;2022-10-16T05:13:24;96620.41;;;9.70;100.00
48041;BME280;33815;48.386;11.738;2022-10-16T05:15:49;96633.66;;;9.77;100.00
48041;BME280;33815;48.386;11.738;2022-10-16T05:18:15;96621.34;;;9.79;100.00
48041;BME280;33815;48.386;11.738;2022-10-16T05:20:41;96622.16;;;9.80;100.00
48041;BME280;33815;48.386;11.738;2022-10-16T05:23:06;96613.28;;;9.72;100.00
48041;BME280;33815;48.386;11.738;2022-10-16T05:25:32;96620.34;;;9.80;100.00
48041;BME280;33815;48.386;11.738;2022-10-16T05:27:57;96603.69;;;9.73;100.00
48041;BME280;33815;48.386;11.738;2022-10-16T05:30:23;96612.69;;;9.78;100.00
48041;BME280;33815;48.386;11.738;2022-10-16T05:32:49;96609.69;;;9.73;100.00
48041;BME280;33815;48.386;11.738;2022-10-16T05:35:17;96615.34;;;9.69;100.00
48041;BME280;33815;48.386;11.738;2022-10-16T05:37:42;96624.53;;;9.63;100.00
48041;BME280;33815;48.386;11.738;2022-10-16T05:40:08;96599.69;;;9.41;100.00
48041;BME280;33815;48.386;11.738;2022-10-16T05:42:34;96635.53;;;9.57;100.00
48041;BME280;33815;48.386;11.738;2022-10-16T05:44:59;96639.09;;;9.56;100.00
48041;BME280;33815;48.386;11.738;2022-10-16T05:47:24;96655.25;;;9.59;100.00
48041;BME280;33815;48.386;11.738;2022-10-16T05:49:50;96655.34;;;9.68;100.00
48041;BME280;33815;48.386;11.738;2022-10-16T05:52:15;96628.69;;;9.56;100.00
48041;BME280;33815;48.386;11.738;2022-10-16T05:54:40;96654.41;;;9.59;100.00
48041;BME280;33815;48.386;11.738;2022-10-16T05:57:05;96650.88;;;9.50;100.00
48041;BME280;33815;48.386;11.738;2022-10-16T05:59:31;96640.78;;;9.37;100.00
48041;BME280;33815;48.386;11.738;2022-10-16T06:01:57;96636.03;;;9.23;100.00
48041;BME280;33815;48.386;11.738;2022-10-16T06:04:22;96634.78;;;9.17;100.00
48041;BME280;33815;48.386;11.738;2022-10-16T06:06:48;96641.66;;;9.18;100.00
48041;BME280;33815;48.386;11.738;2022-10-16T06:09:13;96644.94;;;9.20;100.00
48041;BME280;33815;48.386;11.738;2022-10-16T06:11:38;96652.31;;;9.25;100.00
48041;BME280;33815;48.386;11.738;2022-10-16T06:14:03;96635.38;;;9.11;100.00
48041;BME280;33815;48.386;11.738;2022-10-16T06:16:32;96655.59;;;9.27;100.00
48041;BME280;33815;48.386;11.738;2022-10-16T06:18:58;96661.34;;;9.21;100.00
48041;BME280;33815;48.386;11.738;2022-10-16T06:21:25;96634.28;;;9.04;100.00
48041;BME280;33815;48.386;11.738;2022-10-16T06:23:52;96678.31;;;9.25;100.00
48041;BME280;33815;48.386;11.738;2022-10-16T06:26:21;96667.13;;;9.15;100.00
48041;BME280;33815;48.386;11.738;2022-10-16T06:28:47;96680.78;;;9.17;100.00
48041;BME280;33815;48.386;11.738;2022-10-16T06:31:13;96684.50;;;9.14;100.00
48041;BME280;33815;48.386;11.738;2022-10-16T06:33:39;96677.66;;;9.13;100.00
48041;BME280;33815;48.386;11.738;2022-10-16T06:36:07;96687.94;;;9.15;100.00
48041;BME280;33815;48.386;11.738;2022-10-16T06:38:34;96699.28;;;9.14;100.00
48041;BME280;33815;48.386;11.738;2022-10-16T06:41:00;96696.94;;;9.20;100.00
48041;BME280;33815;48.386;11.738;2022-10-16T06:43:25;96699.94;;;9.25;100.00
48041;BME280;33815;48.386;11.738;2022-10-16T06:45:56;96702.81;;;9.32;100.00
48041;BME280;33815;48.386;11.738;2022-10-16T06:48:22;96705.28;;;9.34;100.00
48041;BME280;33815;48.386;11.738;2022-10-16T06:50:56;96719.63;;;9.48;100.00
48041;BME280;33815;48.386;11.738;2022-10-16T06:53:22;96699.88;;;9.65;100.00
48041;BME280;33815;48.386;11.738;2022-10-16T06:55:47;96699.63;;;10.23;100.00
48041;BME280;33815;48.386;11.738;2022-10-16T06:58:12;96706.59;;;10.96;100.00
48041;BME280;33815;48.386;11.738;2022-10-16T07:00:38;96711.88;;;11.67;100.00
48041;BME280;33815;48.386;11.738;2022-10-16T07:03:03;96711.81;;;12.11;100.00
48041;BME280;33815;48.386;11.738;2022-10-16T07:05:28;96712.19;;;12.25;100.00
48041;BME280;33815;48.386;11.738;2022-10-16T07:07:54;96710.59;;;11.97;100.00
48041;BME280;33815;48.386;11.738;2022-10-16T07:10:19;96695.31;;;11.58;100.00
48041;BME280;33815;48.386;11.738;2022-10-16T07:12:44;96727.38;;;11.42;100.00
48041;BME280;33815;48.386;11.738;2022-10-16T07:15:10;96696.63;;;11.10;100.00
48041;BME280;33815;48.386;11.738;2022-10-16T07:17:35;96724.84;;;11.14;100.00
48041;BME280;33815;48.386;11.738;2022-10-16T07:20:01;96716.16;;;11.06;100.00
48041;BME280;33815;48.386;11.738;2022-10-16T07:22:28;96741.38;;;11.23;100.00
48041;BME280;33815;48.386;11.738;2022-10-16T07:24:53;96729.50;;;11.21;100.00
48041;BME280;33815;48.386;11.738;2022-10-16T07:27:18;96725.59;;;11.25;100.00
48041;BME280;33815;48.386;11.738;2022-10-16T07:29:44;96747.97;;;11.72;100.00
48041;BME280;33815;48.386;11.738;2022-10-16T07:32:09;96724.34;;;11.99;100.00
48041;BME280;33815;48.386;11.738;2022-10-16T07:34:34;96728.56;;;12.35;100.00
48041;BME280;33815;48.386;11.738;2022-10-16T07:37:00;96729.69;;;12.83;100.00
48041;BME280;33815;48.386;11.738;2022-10-16T07:39:25;96738.22;;;13.10;100.00
48041;BME280;33815;48.386;11.738;2022-10-16T07:41:50;96749.53;;;13.52;100.00
48041;BME280;33815;48.386;11.738;2022-10-16T07:44:15;96752.66;;;13.80;100.00
48041;BME280;33815;48.386;11.738;2022-10-16T07:46:41;96747.66;;;14.10;100.00
48041;BME280;33815;48.386;11.738;2022-10-16T07:49:06;96763.06;;;14.05;100.00
48041;BME280;33815;48.386;11.738;2022-10-16T07:51:31;96765.06;;;13.86;100.00
48041;BME280;33815;48.386;11.738;2022-10-16T07:53:57;96754.94;;;13.59;100.00
48041;BME280;33815;48.386;11.738;2022-10-16T07:56:22;96752.66;;;13.64;100.00
48041;BME280;33815;48.386;11.738;2022-10-16T07:58:49;96762.78;;;13.75;100.00
48041;BME280;33815;48.386;11.738;2022-10-16T08:01:16;96767.50;;;14.04;100.00
48041;BME280;33815;48.386;11.738;2022-10-16T08:03:46;96767.56;;;14.36;100.00
48041;BME280;33815;48.386;11.738;2022-10-16T08:06:12;96764.31;;;14.73;100.00
48041;BME280;33815;48.386;11.738;2022-10-16T08:08:37;96764.09;;;14.83;100.00
48041;BME280;33815;48.386;11.738;2022-10-16T08:11:03;96761.50;;;15.30;100.00
48041;BME280;33815;48.386;11.738;2022-10-16T08:13:29;96776.31;;;15.69;100.00
48041;BME280;33815;48.386;11.738;2022-10-16T08:15:55;96780.47;;;16.01;100.00
48041;BME280;33815;48.386;11.738;2022-10-16T08:18:21;96767.53;;;16.44;99.45
48041;BME280;33815;48.386;11.738;2022-10-16T08:20:46;96769.88;;;16.54;98.47
48041;BME280;33815;48.386;11.738;2022-10-16T08:23:12;96776.13;;;16.53;97.19
48041;BME280;33815;48.386;11.738;2022-10-16T08:25:38;96765.41;;;16.70;93.50
48041;BME280;33815;48.386;11.738;2022-10-16T08:28:05;96781.09;;;16.78;96.17
48041;BME280;33815;48.386;11.738;2022-10-16T08:30:30;96770.81;;;16.98;94.29
48041;BME280;33815;48.386;11.738;2022-10-16T08:32:56;96774.09;;;17.22;96.65
48041;BME280;33815;48.386;11.738;2022-10-16T08:35:23;96783.94;;;17.35;92.53
48041;BME280;33815;48.386;11.738;2022-10-16T08:37:48;96781.06;;;17.29;93.20
48041;BME280;33815;48.386;11.738;2022-10-16T08:42:56;96783.56;;;17.59;93.31
48041;BME280;33815;48.386;11.738;2022-10-16T08:45:35;96789.25;;;17.85;88.54
48041;BME280;33815;48.386;11.738;2022-10-16T08:48:08;96793.84;;;17.76;87.56
48041;BME280;33815;48.386;11.738;2022-10-16T08:50:37;96798.41;;;17.89;86.23
48041;BME280;33815;48.386;11.738;2022-10-16T08:53:05;96796.63;;;17.68;81.22
48041;BME280;33815;48.386;11.738;2022-10-16T08:55:37;96800.69;;;17.49;82.49
48041;BME280;33815;48.386;11.738;2022-10-16T08:58:11;96788.84;;;17.38;85.27
48041;BME280;33815;48.386;11.738;2022-10-16T09:00:38;96800.63;;;17.63;83.45
48041;BME280;33815;48.386;11.738;2022-10-16T09:03:24;96801.81;;;18.04;86.62
48041;BME280;33815;48.386;11.738;2022-10-16T09:06:07;96796.19;;;18.14;86.04
48041;BME280;33815;48.386;11.738;2022-10-16T09:11:13;96803.06;;;18.43;85.90
48041;BME280;33815;48.386;11.738;2022-10-16T09:16:43;96789.97;;;18.63;80.91
48041;BME280;33815;48.386;11.738;2022-10-16T09:19:24;96791.25;;;18.74;82.28
48041;BME280;33815;48.386;11.738;2022-10-16T09:21:52;96797.41;;;18.88;81.54
48041;BME280;33815;48.386;11.738;2022-10-16T09:24:20;96783.38;;;18.88;82.94
48041;BME280;33815;48.386;11.738;2022-10-16T09:26:46;96800.72;;;19.04;81.65
48041;BME280;33815;48.386;11.738;2022-10-16T09:29:13;96784.69;;;19.12;81.05
48041;BME280;33815;48.386;11.738;2022-10-16T09:31:39;96780.81;;;19.14;82.04
48041;BME280;33815;48.386;11.738;2022-10-16T09:34:06;96782.50;;;19.29;81.83
48041;BME280;33815;48.386;11.738;2022-10-16T09:36:43;96796.34;;;19.58;78.72
48041;BME280;33815;48.386;11.738;2022-10-16T09:39:10;96794.78;;;19.83;80.71
48041;BME280;33815;48.386;11.738;2022-10-16T09:41:41;96810.56;;;19.57;74.86
48041;BME280;33815;48.386;11.738;2022-10-16T09:46:47;96804.91;;;19.60;78.07
48041;BME280;33815;48.386;11.738;2022-10-16T09:49:23;96820.75;;;19.73;76.51
48041;BME280;33815;48.386;11.738;2022-10-16T09:51:50;96828.09;;;19.78;74.50
48041;BME280;33815;48.386;11.738;2022-10-16T09:54:18;96830.19;;;19.89;76.63
48041;BME280;33815;48.386;11.738;2022-10-16T09:56:44;96819.59;;;20.02;75.63
48041;BME280;33815;48.386;11.738;2022-10-16T09:59:19;96828.13;;;20.31;73.36
48041;BME280;33815;48.386;11.738;2022-10-16T10:01:50;96822.09;;;20.83;73.24
48041;BME280;33815;48.386;11.738;2022-10-16T10:04:16;96809.91;;;20.62;71.31
48041;BME280;33815;48.386;11.738;2022-10-16T10:06:47;96797.88;;;20.66;73.51
48041;BME280;33815;48.386;11.738;2022-10-16T10:09:23;96808.94;;;21.08;70.25
48041;BME280;33815;48.386;11.738;2022-10-16T10:11:50;96813.09;;;20.97;67.84
48041;BME280;33815;48.386;11.738;2022-10-16T10:19:38;96810.44;;;20.97;70.38
48041;BME280;33815;48.386;11.738;2022-10-16T10:28:15;96822.47;;;20.93;69.59
48041;BME280;33815;48.386;11.738;2022-10-16T10:36:36;96824.53;;;21.30;65.89
48041;BME280;33815;48.386;11.738;2022-10-16T10:39:23;96816.97;;;21.72;68.76
48041;BME280;33815;48.386;11.738;2022-10-16T10:50:28;96812.72;;;21.89;63.96
48041;BME280;33815;48.386;11.738;2022-10-16T10:55:44;96808.88;;;22.11;65.17
48041;BME280;33815;48.386;11.738;2022-10-16T10:58:52;96811.19;;;22.51;66.99
48041;BME280;33815;48.386;11.738;2022-10-16T11:06:50;96803.16;;;22.32;65.38
48041;BME280;33815;48.386;11.738;2022-10-16T11:09:20;96802.91;;;22.78;66.67
48041;BME280;33815;48.386;11.738;2022-10-16T11:12:19;96796.59;;;23.09;63.17
48041;BME280;33815;48.386;11.738;2022-10-16T11:17:38;96783.28;;;23.27;64.02
48041;BME280;33815;48.386;11.738;2022-10-16T11:20:18;96785.56;;;23.12;63.96
48041;BME280;33815;48.386;11.738;2022-10-16T11:23:33;96797.88;;;22.69;62.32
48041;BME280;33815;48.386;11.738;2022-10-16T11:26:00;96791.84;;;22.44;63.52
48041;BME280;33815;48.386;11.738;2022-10-16T11:28:32;96810.97;;;22.89;64.20
48041;BME280;33815;48.386;11.738;2022-10-16T11:31:05;96810.56;;;23.04;63.99
48041;BME280;33815;48.386;11.738;2022-10-16T11:33:42;96794.09;;;23.14;59.96
48041;BME280;33815;48.386;11.738;2022-10-16T11:36:27;96809.38;;;23.00;63.17
48041;BME280;33815;48.386;11.738;2022-10-16T11:39:14;96799.91;;;23.04;60.09
48041;BME280;33815;48.386;11.738;2022-10-16T11:41:50;96810.81;;;23.33;60.22
48041;BME280;33815;48.386;11.738;2022-10-16T11:44:51;96813.56;;;23.26;58.48
48041;BME280;33815;48.386;11.738;2022-10-16T11:47:27;96810.91;;;23.69;60.77
48041;BME280;33815;48.386;11.738;2022-10-16T11:50:01;96795.59;;;24.18;58.04
48041;BME280;33815;48.386;11.738;2022-10-16T11:52:32;96802.91;;;24.23;56.31
48041;BME280;33815;48.386;11.738;2022-10-16T11:55:16;96790.84;;;24.44;56.73
48041;BME280;33815;48.386;11.738;2022-10-16T11:57:47;96783.19;;;24.59;55.49
48041;BME280;33815;48.386;11.738;2022-10-16T12:00:25;96789.22;;;24.67;53.46
48041;BME280;33815;48.386;11.738;2022-10-16T12:08:14;96777.19;;;25.22;51.95
48041;BME280;33815;48.386;11.738;2022-10-16T12:10:42;96778.78;;;24.65;51.46
48041;BME280;33815;48.386;11.738;2022-10-16T12:13:34;96777.84;;;24.71;51.46
48041;BME280;33815;48.386;11.738;2022-10-16T12:18:42;96767.00;;;24.37;51.84
48041;BME280;33815;48.386;11.738;2022-10-16T12:21:08;96778.44;;;24.61;48.44
48041;BME280;33815;48.386;11.738;2022-10-16T12:23:46;96781.59;;;24.23;48.84
48041;BME280;33815;48.386;11.738;2022-10-16T12:26:12;96788.28;;;24.37;49.03
48041;BME280;33815;48.386;11.738;2022-10-16T12:28:38;96793.41;;;24.27;49.42
48041;BME280;33815;48.386;11.738;2022-10-16T12:31:08;96788.75;;;24.46;48.58
48041;BME280;33815;48.386;11.738;2022-10-16T12:33:56;96780.75;;;24.70;46.76
48041;BME280;33815;48.386;11.738;2022-10-16T12:36:30;96765.97;;;24.91;47.17
48041;BME280;33815;48.386;11.738;2022-10-16T12:38:57;96770.09;;;25.56;46.50
48041;BME280;33815;48.386;11.738;2022-10-16T12:41:34;96772.84;;;25.95;46.85
48041;BME280;33815;48.386;11.738;2022-10-16T12:44:00;96757.16;;;26.38;43.59
48041;BME280;33815;48.386;11.738;2022-10-16T12:51:38;96756.06;;;26.17;44.08
48041;BME280;33815;48.386;11.738;2022-10-16T12:54:12;96753.13;;;26.36;40.88
48041;BME280;33815;48.386;11.738;2022-10-16T12:56:54;96741.56;;;26.30;42.60
48041;BME280;33815;48.386;11.738;2022-10-16T13:02:43;96760.75;;;26.88;42.80
48041;BME280;33815;48.386;11.738;2022-10-16T13:07:47;96747.16;;;26.28;40.39
48041;BME280;33815;48.386;11.738;2022-10-16T13:13:37;96765.78;;;25.72;42.70
48041;BME280;33815;48.386;11.738;2022-10-16T13:22:05;96770.44;;;26.11;42.49
48041;BME280;33815;48.386;11.738;2022-10-16T13:30:15;96764.75;;;26.07;40.24
48041;BME280;33815;48.386;11.738;2022-10-16T13:32:45;96776.56;;;25.94;44.02
48041;BME280;33815;48.386;11.738;2022-10-16T13:35:25;96776.16;;;25.86;41.74
48041;BME280;33815;48.386;11.738;2022-10-16T13:37:51;96773.41;;;25.80;42.32
48041;BME280;33815;48.386;11.738;2022-10-16T13:40:24;96780.28;;;25.93;42.95
48041;BME280;33815;48.386;11.738;2022-10-16T13:42:50;96785.38;;;25.95;41.95
48041;BME280;33815;48.386;11.738;2022-10-16T13:45:24;96781.09;;;25.94;41.97
48041;BME280;33815;48.386;11.738;2022-10-16T13:48:03;96781.34;;;26.09;41.36
48041;BME280;33815;48.386;11.738;2022-10-16T13:50:28;96789.81;;;25.89;41.98
48041;BME280;33815;48.386;11.738;2022-10-16T13:53:06;96781.97;;;25.99;41.13
48041;BME280;33815;48.386;11.738;2022-10-16T13:55:32;96794.91;;;25.91;43.82
48041;BME280;33815;48.386;11.738;2022-10-16T13:58:10;96800.34;;;25.96;40.98
48041;BME280;33815;48.386;11.738;2022-10-16T14:00:37;96777.06;;;26.08;42.26
48041;BME280;33815;48.386;11.738;2022-10-16T14:03:12;96787.16;;;25.89;43.50
48041;BME280;33815;48.386;11.738;2022-10-16T14:05:53;96810.63;;;25.70;44.46
48041;BME280;33815;48.386;11.738;2022-10-16T14:08:19;96811.88;;;25.51;45.97
48041;BME280;33815;48.386;11.738;2022-10-16T14:10:52;96787.28;;;25.48;43.63
48041;BME280;33815;48.386;11.738;2022-10-16T14:13:22;96796.63;;;25.63;41.72
48041;BME280;33815;48.386;11.738;2022-10-16T14:15:51;96805.72;;;25.50;42.37
48041;BME280;33815;48.386;11.738;2022-10-16T14:18:20;96789.50;;;25.23;41.41
48041;BME280;33815;48.386;11.738;2022-10-16T14:20:48;96801.81;;;25.12;43.54
48041;BME280;33815;48.386;11.738;2022-10-16T14:23:36;96791.50;;;24.75;41.94
48041;BME280;33815;48.386;11.738;2022-10-16T14:26:11;96803.25;;;24.62;42.86
48041;BME280;33815;48.386;11.738;2022-10-16T14:28:41;96803.59;;;24.30;44.73